createdAt,value
2023-01-31T00:00:24.077Z,3.40
2023-01-31T00:01:32.055Z,3.40
2023-01-31T00:02:35.287Z,3.30
2023-01-31T00:03:43.470Z,3.40
2023-01-31T00:04:47.555Z,3.60
2023-01-31T00:05:51.064Z,3.50
2023-01-31T00:06:54.051Z,3.40
2023-01-31T00:07:57.939Z,3.20
2023-01-31T00:09:03.114Z,3.40
2023-01-31T00:10:07.238Z,3.50
2023-01-31T00:11:10.655Z,3.50
2023-01-31T00:12:14.815Z,3.50
2023-01-31T00:13:17.361Z,3.50
2023-01-31T00:14:24.735Z,3.50
2023-01-31T00:15:27.269Z,3.50
2023-01-31T00:16:30.975Z,3.60
2023-01-31T00:17:34.048Z,3.90
2023-01-31T00:18:39.375Z,3.60
2023-01-31T00:19:42.968Z,3.90
2023-01-31T00:20:50.806Z,3.70
2023-01-31T00:21:54.561Z,3.70
2023-01-31T00:23:00.190Z,3.70
2023-01-31T00:24:05.707Z,3.70
2023-01-31T00:25:10.177Z,3.70
2023-01-31T00:26:15.443Z,3.70
2023-01-31T00:27:19.886Z,3.70
2023-01-31T00:28:22.417Z,3.70
2023-01-31T00:29:27.179Z,3.70
2023-01-31T00:30:29.806Z,3.60
2023-01-31T00:31:37.920Z,3.60
2023-01-31T00:32:41.475Z,3.60
2023-01-31T00:33:47.966Z,3.60
2023-01-31T00:34:50.957Z,3.50
2023-01-31T00:35:56.969Z,3.50
2023-01-31T00:37:00.325Z,3.40
2023-01-31T00:38:04.212Z,3.40
2023-01-31T00:39:11.459Z,3.50
2023-01-31T00:40:15.297Z,3.40
2023-01-31T00:41:18.235Z,3.50
2023-01-31T00:42:25.260Z,3.50
2023-01-31T00:43:30.958Z,3.50
2023-01-31T00:44:34.621Z,3.60
2023-01-31T00:45:37.933Z,3.60
2023-01-31T00:46:42.209Z,3.70
2023-01-31T00:47:46.984Z,3.60
2023-01-31T00:48:53.390Z,3.70
2023-01-31T00:49:56.539Z,3.60
2023-01-31T00:51:04.294Z,3.60
2023-01-31T00:52:07.456Z,3.70
2023-01-31T00:53:11.539Z,4.20
2023-01-31T00:54:13.969Z,3.60
2023-01-31T00:55:18.407Z,3.70
2023-01-31T00:56:24.124Z,3.60
2023-01-31T00:57:29.906Z,3.60
2023-01-31T00:58:32.920Z,3.60
2023-01-31T00:59:36.927Z,3.60
2023-01-31T01:00:39.760Z,3.60
2023-01-31T01:01:43.901Z,3.50
2023-01-31T01:02:47.792Z,3.60
2023-01-31T01:03:51.594Z,3.60
2023-01-31T01:04:54.139Z,3.60
2023-01-31T01:05:58.482Z,3.60
2023-01-31T01:07:02.954Z,3.70
2023-01-31T01:08:07.920Z,3.70
2023-01-31T01:09:12.561Z,3.70
2023-01-31T01:10:16.243Z,3.80
2023-01-31T01:11:20.917Z,3.70
2023-01-31T01:12:27.041Z,3.70
2023-01-31T01:13:36.394Z,3.70
2023-01-31T01:14:40.380Z,3.70
2023-01-31T01:15:43.075Z,3.20
2023-01-31T01:16:46.887Z,3.80
2023-01-31T01:17:51.168Z,3.90
2023-01-31T01:18:59.941Z,3.80
2023-01-31T01:20:04.414Z,3.80
2023-01-31T01:21:13.459Z,3.80
2023-01-31T01:22:17.459Z,3.80
2023-01-31T01:23:21.275Z,3.80
2023-01-31T01:24:24.538Z,3.80
2023-01-31T01:25:28.538Z,3.70
2023-01-31T01:26:36.656Z,3.80
2023-01-31T01:27:42.546Z,3.80
2023-01-31T01:28:49.178Z,3.80
2023-01-31T01:29:55.804Z,3.80
2023-01-31T01:30:59.373Z,3.80
2023-01-31T01:32:03.602Z,3.90
2023-01-31T01:33:06.105Z,3.90
2023-01-31T01:34:14.923Z,3.90
2023-01-31T01:35:18.253Z,3.90
2023-01-31T01:36:25.537Z,3.90
2023-01-31T01:37:31.301Z,3.80
2023-01-31T01:38:36.419Z,3.80
2023-01-31T01:39:40.023Z,3.90
2023-01-31T01:40:44.324Z,3.90
2023-01-31T01:41:47.892Z,3.80
2023-01-31T01:42:53.508Z,3.70
2023-01-31T01:43:58.311Z,3.70
2023-01-31T01:45:16.438Z,3.70
2023-01-31T01:46:25.742Z,3.70
2023-01-31T01:47:38.266Z,4.30
2023-01-31T01:48:45.360Z,3.30
2023-01-31T01:49:54.472Z,3.70
2023-01-31T01:51:01.809Z,3.70
2023-01-31T01:52:10.795Z,3.60
2023-01-31T01:53:22.267Z,3.60
2023-01-31T01:54:32.873Z,3.60
2023-01-31T01:55:43.082Z,3.60
2023-01-31T01:56:51.315Z,3.60
2023-01-31T01:58:00.341Z,3.50
2023-01-31T01:59:10.061Z,3.50
2023-01-31T02:00:21.903Z,3.70
2023-01-31T02:01:30.019Z,3.60
2023-01-31T02:02:34.357Z,3.50
2023-01-31T02:03:39.453Z,3.50
2023-01-31T02:04:51.472Z,3.50
2023-01-31T02:05:59.112Z,3.50
2023-01-31T02:07:03.075Z,3.60
2023-01-31T02:08:06.223Z,3.50
2023-01-31T02:09:21.612Z,3.50
2023-01-31T02:10:30.718Z,3.60
2023-01-31T02:11:34.503Z,3.60
2023-01-31T02:12:40.400Z,3.60
2023-01-31T02:13:44.778Z,3.60
2023-01-31T02:14:50.499Z,3.70
2023-01-31T02:15:54.304Z,3.70
2023-01-31T02:16:57.314Z,3.60
2023-01-31T02:18:02.017Z,3.50
2023-01-31T02:19:12.767Z,3.50
2023-01-31T02:20:43.395Z,3.50
2023-01-31T02:22:08.353Z,3.50
2023-01-31T02:23:42.961Z,3.60
2023-01-31T02:25:43.844Z,3.40
2023-01-31T02:27:25.168Z,3.60
2023-01-31T02:29:21.187Z,3.60
2023-01-31T02:31:01.668Z,3.60
2023-01-31T02:32:40.710Z,3.60
2023-01-31T02:33:54.040Z,3.60
2023-01-31T02:35:10.804Z,3.50
2023-01-31T02:36:31.721Z,3.50
2023-01-31T02:37:44.489Z,3.60
2023-01-31T02:39:06.954Z,3.70
2023-01-31T02:40:20.147Z,3.60
2023-01-31T02:41:37.397Z,3.70
2023-01-31T02:42:53.647Z,3.80
2023-01-31T02:44:25.954Z,4.70
2023-01-31T02:45:40.436Z,3.80
2023-01-31T02:46:55.967Z,3.80
2023-01-31T02:48:18.562Z,3.80
2023-01-31T02:49:39.540Z,3.80
2023-01-31T02:51:02.397Z,3.80
2023-01-31T02:52:20.804Z,3.80
2023-01-31T02:53:35.014Z,3.80
2023-01-31T02:54:53.750Z,3.80
2023-01-31T02:56:18.439Z,3.90
2023-01-31T02:57:22.507Z,3.80
2023-01-31T02:58:33.043Z,3.80
2023-01-31T02:59:36.783Z,3.80
2023-01-31T03:00:45.569Z,3.80
2023-01-31T03:01:55.587Z,3.80
2023-01-31T03:03:01.699Z,3.80
2023-01-31T03:04:09.870Z,3.90
2023-01-31T03:05:19.963Z,3.90
2023-01-31T03:07:00.395Z,3.90
2023-01-31T03:08:11.380Z,3.90
2023-01-31T03:09:22.129Z,3.90
2023-01-31T03:10:50.377Z,4.00
2023-01-31T03:12:01.604Z,4.00
2023-01-31T03:13:28.108Z,4.00
2023-01-31T03:14:36.414Z,3.90
2023-01-31T03:16:07.958Z,3.90
2023-01-31T03:17:33.987Z,3.90
2023-01-31T03:18:52.333Z,4.00
2023-01-31T03:20:10.071Z,4.00
2023-01-31T03:21:22.097Z,3.80
2023-01-31T03:22:33.052Z,4.10
2023-01-31T03:23:38.500Z,4.10
2023-01-31T03:24:51.983Z,4.10
2023-01-31T03:25:57.277Z,4.10
2023-01-31T03:27:03.959Z,4.10
2023-01-31T03:28:12.004Z,4.00
2023-01-31T03:29:21.089Z,4.00
2023-01-31T03:31:19.964Z,4.10
2023-01-31T03:32:30.747Z,4.10
2023-01-31T03:33:38.212Z,4.00
2023-01-31T03:34:42.539Z,3.90
2023-01-31T03:35:53.578Z,4.40
2023-01-31T03:37:02.175Z,4.00
2023-01-31T03:38:38.591Z,4.00
2023-01-31T03:39:54.974Z,4.00
2023-01-31T03:41:08.481Z,4.00
2023-01-31T03:42:21.109Z,4.00
2023-01-31T03:43:32.405Z,4.10
2023-01-31T03:44:46.100Z,4.00
2023-01-31T03:46:02.990Z,4.00
2023-01-31T03:47:14.540Z,3.60
2023-01-31T03:48:27.638Z,3.90
2023-01-31T03:49:34.384Z,3.90
2023-01-31T03:50:43.193Z,3.90
2023-01-31T03:51:57.895Z,3.90
2023-01-31T03:53:12.231Z,3.90
2023-01-31T03:54:22.874Z,4.00
2023-01-31T03:55:32.972Z,4.00
2023-01-31T03:56:42.692Z,4.00
2023-01-31T03:57:52.525Z,4.00
2023-01-31T03:59:01.046Z,4.00
2023-01-31T04:00:11.568Z,4.10
2023-01-31T04:01:32.554Z,4.10
2023-01-31T04:02:39.963Z,4.10
2023-01-31T04:03:48.751Z,4.10
2023-01-31T04:04:57.584Z,4.10
2023-01-31T04:06:01.577Z,4.20
2023-01-31T04:07:08.370Z,4.20
2023-01-31T04:08:14.466Z,4.70
2023-01-31T04:09:22.094Z,4.20
2023-01-31T04:10:56.119Z,4.10
2023-01-31T04:12:02.056Z,4.00
2023-01-31T04:13:05.795Z,4.00
2023-01-31T04:14:09.245Z,4.00
2023-01-31T04:15:16.492Z,4.00
2023-01-31T04:16:28.414Z,4.00
2023-01-31T04:17:33.615Z,4.00
2023-01-31T04:18:38.037Z,3.90
2023-01-31T04:19:44.191Z,3.90
2023-01-31T04:20:46.985Z,3.90
2023-01-31T04:21:50.893Z,3.90
2023-01-31T04:22:56.277Z,3.90
2023-01-31T04:23:59.075Z,3.90
2023-01-31T04:25:03.172Z,3.90
2023-01-31T04:26:05.700Z,3.80
2023-01-31T04:27:11.452Z,3.80
2023-01-31T04:28:14.363Z,3.80
2023-01-31T04:29:17.907Z,3.80
2023-01-31T04:30:20.592Z,3.80
2023-01-31T04:31:24.385Z,3.80
2023-01-31T04:32:28.326Z,3.70
2023-01-31T04:33:32.038Z,3.70
2023-01-31T04:34:37.428Z,3.70
2023-01-31T04:35:41.818Z,3.70
2023-01-31T04:36:47.056Z,3.80
2023-01-31T04:37:53.268Z,3.80
2023-01-31T04:39:03.311Z,3.80
2023-01-31T04:40:07.201Z,3.90
2023-01-31T04:41:11.075Z,3.80
2023-01-31T04:42:13.517Z,3.90
2023-01-31T04:43:17.055Z,3.80
2023-01-31T04:44:20.119Z,3.80
2023-01-31T04:45:26.371Z,3.90
2023-01-31T04:46:32.010Z,3.90
2023-01-31T04:47:35.648Z,3.90
2023-01-31T04:48:39.307Z,3.90
2023-01-31T04:49:44.253Z,4.00
2023-01-31T04:50:47.980Z,4.00
2023-01-31T04:51:54.016Z,4.00
2023-01-31T04:52:58.124Z,3.90
2023-01-31T04:54:05.077Z,4.00
2023-01-31T04:55:09.740Z,3.90
2023-01-31T04:56:12.149Z,4.00
2023-01-31T04:57:16.138Z,4.00
2023-01-31T04:58:18.936Z,3.90
2023-01-31T04:59:22.809Z,4.00
2023-01-31T05:00:25.731Z,4.00
2023-01-31T05:01:30.734Z,3.90
2023-01-31T05:02:33.817Z,3.90
2023-01-31T05:03:39.677Z,3.90
2023-01-31T05:04:42.322Z,3.90
2023-01-31T05:05:49.831Z,3.90
2023-01-31T05:06:52.338Z,3.90
2023-01-31T05:07:56.157Z,3.80
2023-01-31T05:09:01.752Z,3.80
2023-01-31T05:10:12.091Z,3.80
2023-01-31T05:11:17.735Z,3.70
2023-01-31T05:12:21.380Z,3.80
2023-01-31T05:13:26.006Z,3.70
2023-01-31T05:14:29.544Z,3.70
2023-01-31T05:15:32.788Z,3.70
2023-01-31T05:16:36.686Z,3.60
2023-01-31T05:17:39.484Z,3.60
2023-01-31T05:18:43.700Z,3.60
2023-01-31T05:19:46.171Z,3.60
2023-01-31T05:20:50.610Z,3.60
2023-01-31T05:21:55.469Z,3.60
2023-01-31T05:22:59.476Z,3.70
2023-01-31T05:24:04.811Z,3.70
2023-01-31T05:25:11.340Z,3.60
2023-01-31T05:26:15.117Z,3.60
2023-01-31T05:27:19.011Z,4.10
2023-01-31T05:28:24.083Z,3.70
2023-01-31T05:29:31.136Z,3.70
2023-01-31T05:30:35.896Z,3.80
2023-01-31T05:31:39.051Z,3.80
2023-01-31T05:32:45.954Z,3.80
2023-01-31T05:33:48.939Z,3.80
2023-01-31T05:34:55.248Z,3.90
2023-01-31T05:35:57.930Z,3.80
2023-01-31T05:37:03.696Z,3.80
2023-01-31T05:38:06.959Z,3.80
2023-01-31T05:39:11.025Z,4.40
2023-01-31T05:40:17.743Z,3.80
2023-01-31T05:41:21.267Z,3.90
2023-01-31T05:42:24.166Z,3.90
2023-01-31T05:43:28.081Z,4.00
2023-01-31T05:44:33.615Z,4.00
2023-01-31T05:45:37.696Z,4.00
2023-01-31T05:46:40.427Z,4.00
2023-01-31T05:47:47.072Z,4.00
2023-01-31T05:48:49.719Z,4.00
2023-01-31T05:49:53.265Z,4.00
2023-01-31T05:50:58.163Z,4.00
2023-01-31T05:52:03.264Z,4.00
2023-01-31T05:53:07.005Z,4.00
2023-01-31T05:54:11.050Z,4.00
2023-01-31T05:55:16.125Z,4.00
2023-01-31T05:56:19.213Z,4.00
2023-01-31T05:57:25.367Z,4.00
2023-01-31T05:58:31.021Z,4.00
2023-01-31T05:59:33.849Z,4.00
2023-01-31T06:00:39.567Z,4.00
2023-01-31T06:01:42.114Z,4.00
2023-01-31T06:02:45.835Z,4.00
2023-01-31T06:03:48.375Z,4.00
2023-01-31T06:04:52.481Z,4.00
2023-01-31T06:05:55.240Z,3.90
2023-01-31T06:06:59.221Z,3.90
2023-01-31T06:08:02.441Z,3.90
2023-01-31T06:09:05.970Z,4.00
2023-01-31T06:10:13.893Z,3.90
2023-01-31T06:11:18.917Z,4.20
2023-01-31T06:12:21.807Z,3.90
2023-01-31T06:13:29.309Z,3.90
2023-01-31T06:14:32.497Z,3.90
2023-01-31T06:15:38.909Z,3.90
2023-01-31T06:16:41.854Z,3.90
2023-01-31T06:17:46.022Z,3.90
2023-01-31T06:18:55.692Z,3.90
2023-01-31T06:19:59.242Z,3.90
2023-01-31T06:21:08.027Z,3.90
2023-01-31T06:22:12.813Z,3.90
2023-01-31T06:23:16.950Z,3.90
2023-01-31T06:24:19.817Z,4.00
2023-01-31T06:25:23.260Z,3.90
2023-01-31T06:26:27.349Z,3.90
2023-01-31T06:27:34.900Z,3.90
2023-01-31T06:28:40.209Z,3.90
2023-01-31T06:29:47.004Z,3.80
2023-01-31T06:30:49.968Z,3.80
2023-01-31T06:31:54.253Z,3.80
2023-01-31T06:33:00.433Z,3.80
2023-01-31T06:34:04.172Z,3.80
2023-01-31T06:35:08.366Z,3.80
2023-01-31T06:36:16.654Z,3.80
2023-01-31T06:37:24.143Z,3.80
2023-01-31T06:38:27.205Z,3.70
2023-01-31T06:39:33.087Z,3.70
2023-01-31T06:40:36.625Z,3.70
2023-01-31T06:41:43.608Z,3.80
2023-01-31T06:42:46.201Z,3.80
2023-01-31T06:43:49.890Z,3.80
2023-01-31T06:44:52.518Z,3.80
2023-01-31T06:45:56.328Z,3.80
2023-01-31T06:46:59.249Z,3.80
2023-01-31T06:48:02.910Z,3.90
2023-01-31T06:49:06.851Z,3.80
2023-01-31T06:50:12.666Z,4.40
2023-01-31T06:51:15.511Z,3.90
2023-01-31T06:52:19.711Z,3.70
2023-01-31T06:53:23.422Z,3.70
2023-01-31T06:54:26.006Z,3.70
2023-01-31T06:55:30.384Z,3.70
2023-01-31T06:56:33.088Z,3.70
2023-01-31T06:57:38.329Z,3.70
2023-01-31T06:58:41.965Z,3.70
2023-01-31T06:59:45.743Z,3.80
2023-01-31T07:00:48.669Z,3.80
2023-01-31T07:01:57.451Z,3.80
2023-01-31T07:03:06.018Z,3.80
2023-01-31T07:04:17.116Z,4.50
2023-01-31T07:05:21.400Z,3.80
2023-01-31T07:06:28.213Z,3.80
2023-01-31T07:07:34.203Z,3.90
2023-01-31T07:08:38.103Z,4.00
2023-01-31T07:09:42.046Z,3.90
2023-01-31T07:10:45.462Z,3.90
2023-01-31T07:11:48.250Z,3.90
2023-01-31T07:12:54.383Z,4.00
2023-01-31T07:13:58.314Z,3.90
2023-01-31T07:15:02.356Z,3.90
2023-01-31T07:16:06.881Z,4.00
2023-01-31T07:17:10.705Z,4.00
2023-01-31T07:18:14.189Z,4.00
2023-01-31T07:19:18.438Z,4.00
2023-01-31T07:20:20.956Z,3.90
2023-01-31T07:21:26.717Z,4.00
2023-01-31T07:22:30.076Z,4.00
2023-01-31T07:23:35.075Z,4.00
2023-01-31T07:24:41.891Z,4.00
2023-01-31T07:25:44.320Z,4.00
2023-01-31T07:26:48.157Z,4.10
2023-01-31T07:27:53.471Z,4.00
2023-01-31T07:28:56.021Z,4.00
2023-01-31T07:29:59.987Z,4.00
2023-01-31T07:31:06.131Z,4.10
2023-01-31T07:32:12.537Z,4.00
2023-01-31T07:33:15.468Z,4.00
2023-01-31T07:34:19.080Z,4.00
2023-01-31T07:35:23.833Z,3.90
2023-01-31T07:36:28.153Z,4.00
2023-01-31T07:37:32.208Z,3.90
2023-01-31T07:38:35.699Z,3.90
2023-01-31T07:39:40.302Z,3.90
2023-01-31T07:40:44.212Z,3.90
2023-01-31T07:41:48.661Z,3.90
2023-01-31T07:43:03.167Z,4.00
2023-01-31T07:44:10.950Z,4.00
2023-01-31T07:45:33.521Z,4.00
2023-01-31T07:46:38.647Z,4.10
2023-01-31T07:47:42.977Z,4.00
2023-01-31T07:48:45.635Z,4.00
2023-01-31T07:49:51.179Z,4.00
2023-01-31T07:50:59.468Z,4.00
2023-01-31T07:52:03.323Z,4.10
2023-01-31T07:53:05.659Z,3.40
2023-01-31T07:54:10.744Z,4.10
2023-01-31T07:55:13.118Z,4.00
2023-01-31T07:56:19.467Z,4.00
2023-01-31T07:57:22.260Z,4.00
2023-01-31T07:58:27.090Z,4.10
2023-01-31T07:59:29.935Z,4.10
2023-01-31T08:00:50.944Z,4.10
2023-01-31T08:02:11.631Z,4.00
2023-01-31T08:03:36.851Z,4.00
2023-01-31T08:04:41.055Z,4.10
2023-01-31T08:05:46.719Z,4.10
2023-01-31T08:06:54.981Z,4.10
2023-01-31T08:08:10.811Z,4.10
2023-01-31T08:09:15.158Z,4.10
2023-01-31T08:10:19.148Z,4.20
2023-01-31T08:11:25.275Z,4.20
2023-01-31T08:12:29.380Z,4.20
2023-01-31T08:13:34.494Z,4.20
2023-01-31T08:14:38.084Z,4.30
2023-01-31T08:15:40.481Z,4.20
2023-01-31T08:16:44.266Z,4.20
2023-01-31T08:17:49.607Z,4.20
2023-01-31T08:18:54.225Z,4.30
2023-01-31T08:19:57.785Z,4.60
2023-01-31T08:21:00.420Z,5.00
2023-01-31T08:22:04.956Z,5.30
2023-01-31T08:23:10.063Z,5.70
2023-01-31T08:24:13.748Z,5.90
2023-01-31T08:25:18.369Z,6.20
2023-01-31T08:26:24.406Z,6.30
2023-01-31T08:27:27.022Z,6.30
2023-01-31T08:28:31.856Z,6.80
2023-01-31T08:29:37.714Z,6.60
2023-01-31T08:30:41.624Z,6.80
2023-01-31T08:31:48.847Z,6.60
2023-01-31T08:32:52.119Z,6.60
2023-01-31T08:33:57.781Z,6.60
2023-01-31T08:35:01.261Z,6.50
2023-01-31T08:36:15.562Z,6.40
2023-01-31T08:37:19.271Z,6.30
2023-01-31T08:38:21.891Z,6.10
2023-01-31T08:39:28.192Z,6.00
2023-01-31T08:40:32.696Z,6.30
2023-01-31T08:41:38.382Z,5.80
2023-01-31T08:42:40.811Z,5.80
2023-01-31T08:43:59.641Z,5.80
2023-01-31T08:45:05.933Z,5.80
2023-01-31T08:46:08.473Z,5.80
2023-01-31T08:47:12.134Z,5.80
2023-01-31T08:48:15.859Z,5.70
2023-01-31T08:49:19.385Z,5.70
2023-01-31T08:50:31.489Z,5.60
2023-01-31T08:51:37.803Z,5.60
2023-01-31T08:52:42.852Z,5.70
2023-01-31T08:53:51.423Z,5.80
2023-01-31T08:54:57.701Z,5.80
2023-01-31T08:56:01.532Z,5.90
2023-01-31T08:57:05.353Z,5.80
2023-01-31T08:58:08.073Z,5.70
2023-01-31T08:59:15.292Z,5.80
2023-01-31T09:00:25.608Z,6.10
2023-01-31T09:01:29.517Z,6.20
2023-01-31T09:02:32.598Z,6.50
2023-01-31T09:03:38.623Z,6.70
2023-01-31T09:04:42.434Z,7.00
2023-01-31T09:05:46.103Z,7.20
2023-01-31T09:06:49.842Z,7.40
2023-01-31T09:07:52.697Z,7.50
2023-01-31T09:08:57.995Z,7.80
2023-01-31T09:10:03.582Z,7.90
2023-01-31T09:11:11.102Z,8.10
2023-01-31T09:12:13.702Z,8.20
2023-01-31T09:13:17.397Z,8.00
2023-01-31T09:14:20.127Z,7.90
2023-01-31T09:15:25.355Z,8.00
2023-01-31T09:16:28.114Z,8.00
2023-01-31T09:17:32.353Z,7.90
2023-01-31T09:18:39.760Z,7.90
2023-01-31T09:19:43.909Z,8.00
2023-01-31T09:20:47.032Z,7.90
2023-01-31T09:21:50.811Z,7.70
2023-01-31T09:22:54.718Z,7.70
2023-01-31T09:23:58.954Z,7.80
2023-01-31T09:25:03.850Z,7.70
2023-01-31T09:26:07.068Z,7.80
2023-01-31T09:27:10.643Z,7.80
2023-01-31T09:28:14.590Z,8.00
2023-01-31T09:29:18.447Z,7.80
2023-01-31T09:30:22.803Z,7.80
2023-01-31T09:31:27.940Z,7.80
2023-01-31T09:32:34.651Z,7.80
2023-01-31T09:33:38.726Z,7.90
2023-01-31T09:34:42.283Z,7.60
2023-01-31T09:35:56.028Z,7.50
2023-01-31T09:36:59.631Z,7.60
2023-01-31T09:38:02.057Z,7.50
2023-01-31T09:39:05.855Z,7.50
2023-01-31T09:40:16.081Z,7.40
2023-01-31T09:41:27.635Z,7.50
2023-01-31T09:42:36.187Z,7.40
2023-01-31T09:43:43.176Z,7.30
2023-01-31T09:44:59.102Z,7.30
2023-01-31T09:46:07.887Z,7.20
2023-01-31T09:47:22.500Z,7.10
2023-01-31T09:48:32.780Z,7.10
2023-01-31T09:49:47.137Z,7.00
2023-01-31T09:51:00.225Z,6.80
2023-01-31T09:52:05.783Z,6.60
2023-01-31T09:53:15.355Z,6.50
2023-01-31T09:54:28.345Z,6.50
2023-01-31T09:55:44.393Z,6.70
2023-01-31T09:57:02.159Z,6.90
2023-01-31T09:58:16.715Z,7.00
2023-01-31T09:59:25.146Z,7.00
2023-01-31T10:00:40.370Z,7.20
2023-01-31T10:01:54.646Z,7.20
2023-01-31T10:03:40.174Z,7.30
2023-01-31T10:05:05.387Z,7.50
2023-01-31T10:06:22.226Z,7.60
2023-01-31T10:07:33.546Z,7.80
2023-01-31T10:08:48.196Z,7.90
2023-01-31T10:09:58.602Z,8.00
2023-01-31T10:11:08.313Z,7.90
2023-01-31T10:12:19.021Z,8.20
2023-01-31T10:13:30.332Z,8.20
2023-01-31T10:14:41.733Z,7.70
2023-01-31T10:15:49.701Z,7.60
2023-01-31T10:17:04.364Z,7.70
2023-01-31T10:18:17.826Z,7.70
2023-01-31T10:19:32.629Z,7.80
2023-01-31T10:20:44.288Z,8.00
2023-01-31T10:21:53.239Z,8.10
2023-01-31T10:23:06.625Z,8.00
2023-01-31T10:24:17.816Z,8.20
2023-01-31T10:25:28.237Z,8.20
2023-01-31T10:26:34.756Z,8.30
2023-01-31T10:27:47.653Z,8.30
2023-01-31T10:29:00.070Z,8.30
2023-01-31T10:30:08.559Z,8.30
2023-01-31T10:31:24.106Z,8.30
2023-01-31T10:32:34.915Z,8.30
2023-01-31T10:33:48.863Z,8.00
2023-01-31T10:34:59.741Z,8.00
2023-01-31T10:36:09.553Z,7.90
2023-01-31T10:37:21.391Z,8.10
2023-01-31T10:38:32.241Z,8.00
2023-01-31T10:39:43.965Z,8.10
2023-01-31T10:40:56.613Z,8.20
2023-01-31T10:42:16.755Z,7.90
2023-01-31T10:43:30.846Z,7.90
2023-01-31T10:44:44.260Z,8.00
2023-01-31T10:45:51.473Z,8.00
2023-01-31T10:47:01.176Z,7.60
2023-01-31T10:48:17.257Z,7.50
2023-01-31T10:49:25.582Z,7.40
2023-01-31T10:50:40.123Z,7.30
2023-01-31T10:52:04.736Z,7.20
2023-01-31T10:53:36.039Z,7.40
2023-01-31T10:54:54.803Z,7.50
2023-01-31T10:56:06.996Z,7.50
2023-01-31T10:57:11.626Z,7.40
2023-01-31T10:58:19.782Z,7.60
2023-01-31T10:59:35.808Z,7.50
2023-01-31T11:00:38.816Z,7.50
2023-01-31T11:01:43.046Z,7.60
2023-01-31T11:02:47.908Z,7.60
2023-01-31T11:03:55.356Z,7.70
2023-01-31T11:05:00.792Z,7.90
2023-01-31T11:06:13.336Z,8.00
2023-01-31T11:07:17.480Z,8.00
2023-01-31T11:08:35.070Z,8.10
2023-01-31T11:09:42.794Z,8.10
2023-01-31T11:10:54.687Z,8.10
2023-01-31T11:12:00.526Z,8.10
2023-01-31T11:13:08.075Z,8.10
2023-01-31T11:14:19.431Z,8.20
2023-01-31T11:15:28.522Z,8.20
2023-01-31T11:16:40.072Z,8.10
2023-01-31T11:17:48.467Z,7.90
2023-01-31T11:18:55.487Z,7.80
2023-01-31T11:19:59.799Z,7.80
2023-01-31T11:21:07.652Z,7.80
2023-01-31T11:22:25.796Z,7.80
2023-01-31T11:23:33.657Z,7.60
2023-01-31T11:24:41.760Z,7.70
2023-01-31T11:25:51.419Z,7.80
2023-01-31T11:27:00.241Z,7.80
2023-01-31T11:28:19.795Z,8.00
2023-01-31T11:29:29.993Z,8.10
2023-01-31T11:30:43.181Z,8.10
2023-01-31T11:31:49.188Z,8.10
2023-01-31T11:32:54.241Z,8.20
2023-01-31T11:33:59.574Z,8.20
2023-01-31T11:35:06.835Z,8.30
2023-01-31T11:36:12.253Z,8.30
2023-01-31T11:37:18.992Z,8.30
2023-01-31T11:38:25.848Z,8.10
2023-01-31T11:39:32.677Z,8.00
2023-01-31T11:40:38.560Z,8.00
2023-01-31T11:41:42.268Z,8.00
2023-01-31T11:42:54.165Z,8.10
2023-01-31T11:44:17.131Z,8.10
2023-01-31T11:45:23.946Z,8.10
2023-01-31T11:46:27.800Z,8.10
2023-01-31T11:47:43.887Z,8.10
2023-01-31T11:48:48.556Z,8.00
2023-01-31T11:49:54.023Z,8.10
2023-01-31T11:51:07.067Z,8.20
2023-01-31T11:52:17.114Z,7.90
2023-01-31T11:53:26.433Z,7.80
2023-01-31T11:54:35.776Z,7.80
2023-01-31T11:55:42.147Z,7.80
2023-01-31T11:56:46.562Z,7.80
2023-01-31T11:57:58.429Z,7.80
2023-01-31T11:59:07.898Z,7.80
2023-01-31T12:00:25.289Z,7.80
2023-01-31T12:01:45.488Z,8.00
2023-01-31T12:03:00.241Z,7.80
2023-01-31T12:04:05.929Z,7.70
2023-01-31T12:05:15.990Z,7.80
2023-01-31T12:06:29.873Z,8.00
2023-01-31T12:07:48.026Z,8.00
2023-01-31T12:09:00.421Z,8.00
2023-01-31T12:10:04.178Z,8.00
2023-01-31T12:11:25.209Z,8.10
2023-01-31T12:12:32.404Z,8.10
2023-01-31T12:13:48.603Z,8.00
2023-01-31T12:14:52.496Z,8.20
2023-01-31T12:16:04.207Z,8.20
2023-01-31T12:17:14.133Z,8.10
2023-01-31T12:18:32.042Z,8.10
2023-01-31T12:19:59.696Z,8.20
2023-01-31T12:21:16.427Z,8.40
2023-01-31T12:22:34.594Z,8.20
2023-01-31T12:23:54.721Z,8.10
2023-01-31T12:25:13.842Z,8.20
2023-01-31T12:26:31.860Z,8.10
2023-01-31T12:28:01.882Z,8.00
2023-01-31T12:29:27.013Z,8.00
2023-01-31T12:30:54.114Z,8.20
2023-01-31T12:32:26.746Z,8.20
2023-01-31T12:33:43.777Z,7.90
2023-01-31T12:35:11.134Z,7.80
2023-01-31T12:36:40.839Z,7.80
2023-01-31T12:38:00.279Z,7.90
2023-01-31T12:39:26.121Z,7.90
2023-01-31T12:40:41.095Z,7.90
2023-01-31T12:42:06.036Z,7.60
2023-01-31T12:43:27.735Z,7.50
2023-01-31T12:44:51.441Z,7.50
2023-01-31T12:46:11.695Z,7.40
2023-01-31T12:47:39.386Z,7.30
2023-01-31T12:49:17.838Z,7.30
2023-01-31T12:50:32.037Z,7.10
2023-01-31T12:51:46.642Z,7.00
2023-01-31T12:53:11.315Z,7.00
2023-01-31T12:54:33.158Z,7.10
2023-01-31T12:55:50.298Z,6.90
2023-01-31T12:57:05.891Z,7.00
2023-01-31T12:58:32.548Z,7.00
2023-01-31T12:59:53.854Z,7.20
2023-01-31T13:01:07.669Z,7.40
2023-01-31T13:02:37.978Z,7.40
2023-01-31T13:04:07.906Z,7.30
2023-01-31T13:05:28.187Z,7.20
2023-01-31T13:06:38.640Z,6.70
2023-01-31T13:07:49.711Z,6.50
2023-01-31T13:09:07.708Z,6.30
2023-01-31T13:10:30.177Z,6.20
2023-01-31T13:11:45.455Z,6.10
2023-01-31T13:12:52.181Z,6.00
2023-01-31T13:14:02.506Z,5.90
2023-01-31T13:15:16.445Z,5.90
2023-01-31T13:16:31.306Z,5.80
2023-01-31T13:17:39.473Z,5.60
2023-01-31T13:18:47.887Z,5.50
2023-01-31T13:19:55.948Z,5.40
2023-01-31T13:21:05.007Z,5.70
2023-01-31T13:22:19.387Z,5.50
2023-01-31T13:23:32.402Z,5.40
2023-01-31T13:24:42.483Z,5.40
2023-01-31T13:25:51.316Z,5.40
2023-01-31T13:27:02.297Z,5.30
2023-01-31T13:28:16.921Z,5.20
2023-01-31T13:29:27.976Z,5.20
2023-01-31T13:30:42.746Z,5.00
2023-01-31T13:31:55.250Z,5.00
2023-01-31T13:33:02.107Z,5.00
2023-01-31T13:34:16.993Z,5.10
2023-01-31T13:35:27.632Z,5.10
2023-01-31T13:36:39.876Z,5.00
2023-01-31T13:37:49.007Z,5.00
2023-01-31T13:38:53.856Z,5.00
2023-01-31T13:40:04.432Z,5.10
2023-01-31T13:41:20.404Z,5.10
2023-01-31T13:42:25.445Z,5.00
2023-01-31T13:43:27.989Z,5.10
2023-01-31T13:44:32.327Z,5.10
2023-01-31T13:45:44.263Z,5.10
2023-01-31T13:46:59.808Z,5.00
2023-01-31T13:48:12.234Z,5.10
2023-01-31T13:49:29.275Z,5.10
2023-01-31T13:50:42.391Z,5.10
2023-01-31T13:51:52.989Z,5.00
2023-01-31T13:53:03.355Z,5.00
2023-01-31T13:54:17.671Z,5.00
2023-01-31T13:55:29.838Z,4.80
2023-01-31T13:56:37.736Z,4.90
2023-01-31T13:57:48.069Z,4.90
2023-01-31T13:58:52.783Z,4.90
2023-01-31T14:00:03.753Z,4.90
2023-01-31T14:01:19.159Z,4.80
2023-01-31T14:02:25.521Z,4.80
2023-01-31T14:03:29.426Z,4.70
2023-01-31T14:04:40.300Z,4.70
2023-01-31T14:06:02.136Z,4.50
2023-01-31T14:07:29.047Z,4.50
2023-01-31T14:08:59.569Z,4.20
2023-01-31T14:10:32.891Z,4.40
2023-01-31T14:11:48.164Z,4.50
2023-01-31T14:13:32.285Z,4.50
2023-01-31T14:14:42.148Z,4.60
2023-01-31T14:15:50.389Z,4.60
2023-01-31T14:16:56.083Z,4.60
2023-01-31T14:18:02.379Z,4.60
2023-01-31T14:19:27.364Z,4.60
2023-01-31T14:20:32.786Z,4.60
2023-01-31T14:21:54.075Z,4.60
2023-01-31T14:23:35.383Z,4.60
2023-01-31T14:25:15.517Z,4.50
2023-01-31T14:26:52.916Z,4.50
2023-01-31T14:28:05.407Z,4.40
2023-01-31T14:29:10.621Z,4.30
2023-01-31T14:30:40.407Z,4.20
2023-01-31T14:31:46.734Z,4.30
2023-01-31T14:33:04.666Z,4.30
2023-01-31T14:34:18.504Z,4.40
2023-01-31T14:35:43.549Z,4.40
2023-01-31T14:37:08.394Z,4.40
2023-01-31T14:38:24.500Z,4.50
2023-01-31T14:40:09.611Z,4.50
2023-01-31T14:41:30.035Z,4.40
2023-01-31T14:43:03.511Z,4.40
2023-01-31T14:44:26.052Z,4.30
2023-01-31T14:46:00.945Z,4.30
2023-01-31T14:47:27.923Z,4.30
2023-01-31T14:48:50.749Z,4.40
2023-01-31T14:50:25.366Z,4.40
2023-01-31T14:51:42.852Z,4.40
2023-01-31T14:53:05.442Z,4.40
2023-01-31T14:54:40.260Z,4.30
2023-01-31T14:56:03.656Z,4.20
2023-01-31T14:57:17.845Z,4.20
2023-01-31T14:58:28.598Z,4.30
2023-01-31T14:59:37.463Z,4.30
2023-01-31T15:00:51.996Z,4.20
2023-01-31T15:01:58.380Z,4.50
2023-01-31T15:03:09.219Z,4.60
2023-01-31T15:04:25.167Z,4.80
2023-01-31T15:05:44.168Z,5.10
2023-01-31T15:06:54.981Z,5.30
2023-01-31T15:08:04.718Z,5.30
2023-01-31T15:09:37.376Z,5.20
2023-01-31T15:10:58.424Z,5.10
2023-01-31T15:12:02.049Z,4.90
2023-01-31T15:13:33.459Z,4.90
2023-01-31T15:14:45.256Z,4.80
2023-01-31T15:15:51.548Z,4.60
2023-01-31T15:17:02.218Z,4.60
2023-01-31T15:18:16.295Z,4.50
2023-01-31T15:19:24.795Z,4.50
2023-01-31T15:20:37.215Z,4.60
2023-01-31T15:21:53.190Z,4.60
2023-01-31T15:23:05.079Z,4.60
2023-01-31T15:24:20.446Z,4.50
2023-01-31T15:25:32.753Z,4.40
2023-01-31T15:26:36.798Z,4.20
2023-01-31T15:27:43.681Z,4.10